sensor_id;sensor_type;location;lat;lon;timestamp;pressure;altitude;pressure_sealevel;temperature;humidity
4745;BME280;2386;42.138;24.746;2023-12-20T00:02:22;100045.41;;;5.45;100.00
4745;BME280;2386;42.138;24.746;2023-12-20T00:04:48;100054.31;;;5.45;100.00
4745;BME280;2386;42.138;24.746;2023-12-20T00:07:13;100044.19;;;5.47;100.00
4745;BME280;2386;42.138;24.746;2023-12-20T00:09:39;100047.44;;;5.43;100.00
4745;BME280;2386;42.138;24.746;2023-12-20T00:12:04;100042.41;;;5.54;100.00
4745;BME280;2386;42.138;24.746;2023-12-20T00:14:30;100052.88;;;5.64;100.00
4745;BME280;2386;42.138;24.746;2023-12-20T00:16:55;100045.19;;;5.61;100.00
4745;BME280;2386;42.138;24.746;2023-12-20T00:19:21;100032.97;;;5.44;100.00
4745;BME280;2386;42.138;24.746;2023-12-20T00:21:46;100042.97;;;5.50;100.00
4745;BME280;2386;42.138;24.746;2023-12-20T00:24:11;100051.50;;;5.53;100.00
4745;BME280;2386;42.138;24.746;2023-12-20T00:26:37;100045.03;;;5.33;100.00
4745;BME280;2386;42.138;24.746;2023-12-20T00:29:02;100039.25;;;5.51;100.00
4745;BME280;2386;42.138;24.746;2023-12-20T00:31:28;100028.53;;;5.36;100.00
4745;BME280;2386;42.138;24.746;2023-12-20T00:33:53;100029.25;;;5.30;100.00
4745;BME280;2386;42.138;24.746;2023-12-20T00:36:18;100022.31;;;5.36;100.00
4745;BME280;2386;42.138;24.746;2023-12-20T00:38:44;100005.75;;;5.17;100.00
4745;BME280;2386;42.138;24.746;2023-12-20T00:41:10;100009.00;;;5.13;100.00
4745;BME280;2386;42.138;24.746;2023-12-20T00:43:35;100013.81;;;5.17;100.00
4745;BME280;2386;42.138;24.746;2023-12-20T00:46:00;100001.22;;;5.18;100.00
4745;BME280;2386;42.138;24.746;2023-12-20T00:48:26;100005.16;;;5.22;100.00
4745;BME280;2386;42.138;24.746;2023-12-20T00:50:57;100000.44;;;5.24;100.00
4745;BME280;2386;42.138;24.746;2023-12-20T00:53:22;100004.41;;;5.28;100.00
4745;BME280;2386;42.138;24.746;2023-12-20T00:55:48;99997.81;;;5.31;100.00
4745;BME280;2386;42.138;24.746;2023-12-20T00:58:14;99995.88;;;5.24;100.00
4745;BME280;2386;42.138;24.746;2023-12-20T01:00:40;99987.94;;;5.16;100.00
4745;BME280;2386;42.138;24.746;2023-12-20T01:03:07;99986.94;;;5.17;100.00
4745;BME280;2386;42.138;24.746;2023-12-20T01:05:32;99995.41;;;5.21;100.00
4745;BME280;2386;42.138;24.746;2023-12-20T01:07:58;99981.47;;;5.11;100.00
4745;BME280;2386;42.138;24.746;2023-12-20T01:10:23;99971.44;;;5.05;100.00
4745;BME280;2386;42.138;24.746;2023-12-20T01:12:49;99981.38;;;5.04;100.00
4745;BME280;2386;42.138;24.746;2023-12-20T01:15:14;99973.03;;;4.99;100.00
4745;BME280;2386;42.138;24.746;2023-12-20T01:17:39;99966.81;;;4.99;100.00
4745;BME280;2386;42.138;24.746;2023-12-20T01:20:05;99966.81;;;4.99;100.00
4745;BME280;2386;42.138;24.746;2023-12-20T01:22:31;99957.91;;;4.98;100.00
4745;BME280;2386;42.138;24.746;2023-12-20T01:24:56;99966.53;;;4.93;100.00
4745;BME280;2386;42.138;24.746;2023-12-20T01:27:22;99965.25;;;5.04;100.00
4745;BME280;2386;42.138;24.746;2023-12-20T01:29:47;99951.16;;;5.02;100.00
4745;BME280;2386;42.138;24.746;2023-12-20T01:32:12;99948.66;;;5.01;100.00
4745;BME280;2386;42.138;24.746;2023-12-20T01:34:38;99955.59;;;4.95;100.00
4745;BME280;2386;42.138;24.746;2023-12-20T01:37:03;99949.94;;;4.75;100.00
4745;BME280;2386;42.138;24.746;2023-12-20T01:39:29;99958.75;;;5.13;100.00
4745;BME280;2386;42.138;24.746;2023-12-20T01:41:54;99941.25;;;4.88;100.00
4745;BME280;2386;42.138;24.746;2023-12-20T01:44:20;99945.97;;;4.86;100.00
4745;BME280;2386;42.138;24.746;2023-12-20T01:46:46;99954.13;;;5.07;100.00
4745;BME280;2386;42.138;24.746;2023-12-20T01:49:12;99939.66;;;5.08;100.00
4745;BME280;2386;42.138;24.746;2023-12-20T01:51:38;99942.16;;;4.95;100.00
4745;BME280;2386;42.138;24.746;2023-12-20T01:54:04;99931.69;;;4.56;100.00
4745;BME280;2386;42.138;24.746;2023-12-20T01:56:30;99928.81;;;4.87;100.00
4745;BME280;2386;42.138;24.746;2023-12-20T01:58:56;99927.22;;;5.07;100.00
4745;BME280;2386;42.138;24.746;2023-12-20T02:01:22;99928.72;;;5.10;100.00
4745;BME280;2386;42.138;24.746;2023-12-20T02:03:48;99929.19;;;4.99;100.00
4745;BME280;2386;42.138;24.746;2023-12-20T02:06:13;99916.31;;;4.94;100.00
4745;BME280;2386;42.138;24.746;2023-12-20T02:08:39;99914.44;;;5.09;100.00
4745;BME280;2386;42.138;24.746;2023-12-20T02:11:04;99908.69;;;5.12;100.00
4745;BME280;2386;42.138;24.746;2023-12-20T02:13:31;99897.56;;;5.15;100.00
4745;BME280;2386;42.138;24.746;2023-12-20T02:15:56;99898.44;;;5.22;100.00
4745;BME280;2386;42.138;24.746;2023-12-20T02:18:22;99900.25;;;5.15;100.00
4745;BME280;2386;42.138;24.746;2023-12-20T02:20:47;99904.91;;;4.92;100.00
4745;BME280;2386;42.138;24.746;2023-12-20T02:23:13;99894.63;;;4.81;100.00
4745;BME280;2386;42.138;24.746;2023-12-20T02:25:38;99899.25;;;4.87;100.00
4745;BME280;2386;42.138;24.746;2023-12-20T02:28:05;99894.06;;;5.00;100.00
4745;BME280;2386;42.138;24.746;2023-12-20T02:30:31;99896.19;;;4.90;100.00
4745;BME280;2386;42.138;24.746;2023-12-20T02:32:56;99884.97;;;5.01;100.00
4745;BME280;2386;42.138;24.746;2023-12-20T02:35:22;99893.81;;;4.80;100.00
4745;BME280;2386;42.138;24.746;2023-12-20T02:37:48;99891.22;;;4.72;100.00
4745;BME280;2386;42.138;24.746;2023-12-20T02:40:13;99891.47;;;4.77;100.00
4745;BME280;2386;42.138;24.746;2023-12-20T02:42:38;99875.38;;;4.62;100.00
4745;BME280;2386;42.138;24.746;2023-12-20T02:45:04;99888.53;;;4.72;100.00
4745;BME280;2386;42.138;24.746;2023-12-20T02:47:30;99874.53;;;4.77;100.00
4745;BME280;2386;42.138;24.746;2023-12-20T02:49:55;99869.34;;;4.60;100.00
4745;BME280;2386;42.138;24.746;2023-12-20T02:52:22;99865.00;;;4.59;100.00
4745;BME280;2386;42.138;24.746;2023-12-20T02:54:48;99865.19;;;4.73;100.00
4745;BME280;2386;42.138;24.746;2023-12-20T02:57:13;99867.03;;;4.57;100.00
4745;BME280;2386;42.138;24.746;2023-12-20T02:59:39;99851.28;;;4.54;100.00
4745;BME280;2386;42.138;24.746;2023-12-20T03:02:04;99865.09;;;4.66;100.00
4745;BME280;2386;42.138;24.746;2023-12-20T03:04:29;99861.13;;;4.47;100.00
4745;BME280;2386;42.138;24.746;2023-12-20T03:06:55;99856.13;;;4.44;100.00
4745;BME280;2386;42.138;24.746;2023-12-20T03:09:20;99866.66;;;4.60;100.00
4745;BME280;2386;42.138;24.746;2023-12-20T03:11:45;99858.78;;;4.59;100.00
4745;BME280;2386;42.138;24.746;2023-12-20T03:14:11;99856.19;;;4.51;100.00
4745;BME280;2386;42.138;24.746;2023-12-20T03:16:36;99845.66;;;4.49;100.00
4745;BME280;2386;42.138;24.746;2023-12-20T03:19:02;99854.16;;;4.68;100.00
4745;BME280;2386;42.138;24.746;2023-12-20T03:21:27;99852.47;;;4.81;100.00
4745;BME280;2386;42.138;24.746;2023-12-20T03:23:52;99846.66;;;4.63;100.00
4745;BME280;2386;42.138;24.746;2023-12-20T03:26:18;99849.06;;;4.73;100.00
4745;BME280;2386;42.138;24.746;2023-12-20T03:28:44;99850.13;;;4.93;100.00
4745;BME280;2386;42.138;24.746;2023-12-20T03:31:09;99837.72;;;4.92;100.00
4745;BME280;2386;42.138;24.746;2023-12-20T03:33:35;99842.56;;;4.82;100.00
4745;BME280;2386;42.138;24.746;2023-12-20T03:36:00;99839.53;;;4.70;100.00
4745;BME280;2386;42.138;24.746;2023-12-20T03:38:26;99838.31;;;4.73;100.00
4745;BME280;2386;42.138;24.746;2023-12-20T03:40:51;99835.63;;;4.73;100.00
4745;BME280;2386;42.138;24.746;2023-12-20T03:43:16;99837.47;;;4.72;100.00
4745;BME280;2386;42.138;24.746;2023-12-20T03:45:42;99828.22;;;4.75;100.00
4745;BME280;2386;42.138;24.746;2023-12-20T03:48:08;99833.84;;;4.80;100.00
4745;BME280;2386;42.138;24.746;2023-12-20T03:50:34;99825.91;;;4.72;100.00
4745;BME280;2386;42.138;24.746;2023-12-20T03:52:59;99836.31;;;4.45;100.00
4745;BME280;2386;42.138;24.746;2023-12-20T03:55:25;99834.00;;;4.42;100.00
4745;BME280;2386;42.138;24.746;2023-12-20T03:57:50;99836.09;;;4.47;100.00
4745;BME280;2386;42.138;24.746;2023-12-20T04:00:16;99837.44;;;4.36;100.00
4745;BME280;2386;42.138;24.746;2023-12-20T04:02:42;99840.78;;;4.38;100.00
4745;BME280;2386;42.138;24.746;2023-12-20T04:05:08;99830.69;;;4.40;100.00
4745;BME280;2386;42.138;24.746;2023-12-20T04:07:35;99828.41;;;4.58;100.00
4745;BME280;2386;42.138;24.746;2023-12-20T04:10:00;99828.78;;;4.70;100.00
4745;BME280;2386;42.138;24.746;2023-12-20T04:12:28;99826.28;;;4.69;100.00
4745;BME280;2386;42.138;24.746;2023-12-20T04:14:53;99824.03;;;4.72;100.00
4745;BME280;2386;42.138;24.746;2023-12-20T04:17:19;99826.84;;;4.49;100.00
4745;BME280;2386;42.138;24.746;2023-12-20T04:19:45;99833.50;;;4.53;100.00
4745;BME280;2386;42.138;24.746;2023-12-20T04:22:10;99827.75;;;4.56;100.00
4745;BME280;2386;42.138;24.746;2023-12-20T04:24:36;99821.69;;;4.33;100.00
4745;BME280;2386;42.138;24.746;2023-12-20T04:27:02;99822.44;;;4.27;100.00
4745;BME280;2386;42.138;24.746;2023-12-20T04:29:27;99822.81;;;4.24;100.00
4745;BME280;2386;42.138;24.746;2023-12-20T04:31:53;99818.91;;;4.12;100.00
4745;BME280;2386;42.138;24.746;2023-12-20T04:34:18;99819.19;;;4.32;100.00
4745;BME280;2386;42.138;24.746;2023-12-20T04:36:44;99820.50;;;4.36;100.00
4745;BME280;2386;42.138;24.746;2023-12-20T04:39:11;99823.63;;;4.24;100.00
4745;BME280;2386;42.138;24.746;2023-12-20T04:41:36;99819.00;;;4.18;100.00
4745;BME280;2386;42.138;24.746;2023-12-20T04:44:02;99809.53;;;4.52;100.00
4745;BME280;2386;42.138;24.746;2023-12-20T04:46:27;99798.41;;;4.55;100.00
4745;BME280;2386;42.138;24.746;2023-12-20T04:48:53;99804.09;;;4.45;100.00
4745;BME280;2386;42.138;24.746;2023-12-20T04:51:18;99800.69;;;4.37;100.00
4745;BME280;2386;42.138;24.746;2023-12-20T04:53:44;99804.09;;;4.45;100.00
4745;BME280;2386;42.138;24.746;2023-12-20T04:56:09;99801.59;;;4.44;100.00
4745;BME280;2386;42.138;24.746;2023-12-20T04:58:34;99797.91;;;4.45;100.00
4745;BME280;2386;42.138;24.746;2023-12-20T05:01:00;99799.25;;;4.55;100.00
4745;BME280;2386;42.138;24.746;2023-12-20T05:03:26;99804.25;;;4.58;100.00
4745;BME280;2386;42.138;24.746;2023-12-20T05:05:51;99798.56;;;4.68;100.00
4745;BME280;2386;42.138;24.746;2023-12-20T05:08:16;99790.16;;;4.56;100.00
4745;BME280;2386;42.138;24.746;2023-12-20T05:10:42;99787.38;;;4.50;100.00
4745;BME280;2386;42.138;24.746;2023-12-20T05:13:07;99782.56;;;4.60;100.00
4745;BME280;2386;42.138;24.746;2023-12-20T05:15:33;99797.69;;;4.46;100.00
4745;BME280;2386;42.138;24.746;2023-12-20T05:17:58;99787.72;;;4.40;100.00
4745;BME280;2386;42.138;24.746;2023-12-20T05:20:24;99790.03;;;4.43;100.00
4745;BME280;2386;42.138;24.746;2023-12-20T05:22:49;99778.81;;;4.40;100.00
4745;BME280;2386;42.138;24.746;2023-12-20T05:25:14;99777.25;;;4.45;100.00
4745;BME280;2386;42.138;24.746;2023-12-20T05:27:40;99779.56;;;4.34;100.00
4745;BME280;2386;42.138;24.746;2023-12-20T05:30:06;99779.94;;;4.45;100.00
4745;BME280;2386;42.138;24.746;2023-12-20T05:32:31;99771.88;;;4.45;100.00
4745;BME280;2386;42.138;24.746;2023-12-20T05:34:57;99774.97;;;4.49;100.00
4745;BME280;2386;42.138;24.746;2023-12-20T05:37:22;99766.38;;;4.53;100.00
4745;BME280;2386;42.138;24.746;2023-12-20T05:39:47;99756.25;;;4.55;100.00
4745;BME280;2386;42.138;24.746;2023-12-20T05:42:13;99757.56;;;4.59;100.00
4745;BME280;2386;42.138;24.746;2023-12-20T05:44:38;99761.41;;;4.72;100.00
4745;BME280;2386;42.138;24.746;2023-12-20T05:47:04;99760.63;;;4.56;100.00
4745;BME280;2386;42.138;24.746;2023-12-20T05:49:29;99745.41;;;4.63;100.00
4745;BME280;2386;42.138;24.746;2023-12-20T05:51:54;99747.44;;;4.61;100.00
4745;BME280;2386;42.138;24.746;2023-12-20T05:54:20;99747.72;;;4.67;100.00
4745;BME280;2386;42.138;24.746;2023-12-20T05:56:46;99752.56;;;4.56;100.00
4745;BME280;2386;42.138;24.746;2023-12-20T05:59:12;99742.72;;;4.42;100.00
4745;BME280;2386;42.138;24.746;2023-12-20T06:01:37;99745.53;;;4.55;100.00
4745;BME280;2386;42.138;24.746;2023-12-20T06:04:03;99743.78;;;4.48;100.00
4745;BME280;2386;42.138;24.746;2023-12-20T06:06:29;99745.41;;;4.42;100.00
4745;BME280;2386;42.138;24.746;2023-12-20T06:08:55;99745.91;;;4.52;100.00
4745;BME280;2386;42.138;24.746;2023-12-20T06:11:21;99745.78;;;4.60;100.00
4745;BME280;2386;42.138;24.746;2023-12-20T06:13:46;99749.56;;;4.45;100.00
4745;BME280;2386;42.138;24.746;2023-12-20T06:16:11;99748.78;;;4.51;100.00
4745;BME280;2386;42.138;24.746;2023-12-20T06:18:37;99747.47;;;4.47;100.00
4745;BME280;2386;42.138;24.746;2023-12-20T06:21:03;99754.19;;;4.36;100.00
4745;BME280;2386;42.138;24.746;2023-12-20T06:23:28;99745.31;;;4.36;100.00
4745;BME280;2386;42.138;24.746;2023-12-20T06:25:53;99745.91;;;4.52;100.00
4745;BME280;2386;42.138;24.746;2023-12-20T06:28:19;99743.78;;;4.48;100.00
4745;BME280;2386;42.138;24.746;2023-12-20T06:30:44;99743.09;;;4.60;100.00
4745;BME280;2386;42.138;24.746;2023-12-20T06:33:12;99725.59;;;4.65;100.00
4745;BME280;2386;42.138;24.746;2023-12-20T06:35:38;99739.84;;;4.65;100.00
4745;BME280;2386;42.138;24.746;2023-12-20T06:38:04;99736.16;;;4.30;100.00
4745;BME280;2386;42.138;24.746;2023-12-20T06:40:29;99744.59;;;4.48;100.00
4745;BME280;2386;42.138;24.746;2023-12-20T06:42:55;99747.06;;;4.43;100.00
4745;BME280;2386;42.138;24.746;2023-12-20T06:45:20;99747.81;;;4.37;100.00
4745;BME280;2386;42.138;24.746;2023-12-20T06:47:45;99738.03;;;4.51;100.00
4745;BME280;2386;42.138;24.746;2023-12-20T06:50:11;99746.53;;;4.54;100.00
4745;BME280;2386;42.138;24.746;2023-12-20T06:52:36;99739.88;;;4.50;100.00
4745;BME280;2386;42.138;24.746;2023-12-20T06:55:02;99734.41;;;4.58;100.00
4745;BME280;2386;42.138;24.746;2023-12-20T06:57:29;99730.19;;;4.71;100.00
4745;BME280;2386;42.138;24.746;2023-12-20T06:59:54;99721.22;;;4.63;100.00
4745;BME280;2386;42.138;24.746;2023-12-20T07:02:20;99733.44;;;4.66;100.00
4745;BME280;2386;42.138;24.746;2023-12-20T07:04:46;99722.09;;;4.49;100.00
4745;BME280;2386;42.138;24.746;2023-12-20T07:07:11;99733.19;;;4.61;100.00
4745;BME280;2386;42.138;24.746;2023-12-20T07:09:36;99725.63;;;4.50;100.00
4745;BME280;2386;42.138;24.746;2023-12-20T07:12:03;99722.56;;;4.53;100.00
4745;BME280;2386;42.138;24.746;2023-12-20T07:14:29;99719.78;;;4.46;100.00
4745;BME280;2386;42.138;24.746;2023-12-20T07:16:54;99725.00;;;4.69;100.00
4745;BME280;2386;42.138;24.746;2023-12-20T07:19:20;99707.41;;;4.67;100.00
4745;BME280;2386;42.138;24.746;2023-12-20T07:21:45;99717.34;;;4.66;100.00
4745;BME280;2386;42.138;24.746;2023-12-20T07:24:10;99711.66;;;4.76;100.00
4745;BME280;2386;42.138;24.746;2023-12-20T07:26:36;99701.84;;;4.68;100.00
4745;BME280;2386;42.138;24.746;2023-12-20T07:29:03;99711.91;;;4.81;100.00
4745;BME280;2386;42.138;24.746;2023-12-20T07:31:29;99692.34;;;4.87;100.00
4745;BME280;2386;42.138;24.746;2023-12-20T07:33:54;99702.56;;;4.98;100.00
4745;BME280;2386;42.138;24.746;2023-12-20T07:36:20;99697.19;;;4.98;100.00
4745;BME280;2386;42.138;24.746;2023-12-20T07:38:46;99699.38;;;5.09;100.00
4745;BME280;2386;42.138;24.746;2023-12-20T07:41:12;99699.50;;;5.01;100.00
4745;BME280;2386;42.138;24.746;2023-12-20T07:43:38;99698.16;;;4.90;100.00
4745;BME280;2386;42.138;24.746;2023-12-20T07:46:07;99695.09;;;4.93;100.00
4745;BME280;2386;42.138;24.746;2023-12-20T07:48:36;99693.09;;;5.02;100.00
4745;BME280;2386;42.138;24.746;2023-12-20T07:51:02;99695.72;;;5.17;100.00
4745;BME280;2386;42.138;24.746;2023-12-20T07:53:28;99682.53;;;5.28;100.00
4745;BME280;2386;42.138;24.746;2023-12-20T07:55:53;99692.72;;;5.33;100.00
4745;BME280;2386;42.138;24.746;2023-12-20T07:58:19;99685.13;;;5.43;100.00
4745;BME280;2386;42.138;24.746;2023-12-20T08:00:44;99692.28;;;5.57;100.00
4745;BME280;2386;42.138;24.746;2023-12-20T08:03:11;99678.00;;;5.57;100.00
4745;BME280;2386;42.138;24.746;2023-12-20T08:05:38;99678.88;;;5.64;100.00
4745;BME280;2386;42.138;24.746;2023-12-20T08:08:07;99677.91;;;5.44;100.00
4745;BME280;2386;42.138;24.746;2023-12-20T08:10:32;99677.34;;;5.55;100.00
4745;BME280;2386;42.138;24.746;2023-12-20T08:12:58;99678.31;;;5.75;100.00
4745;BME280;2386;42.138;24.746;2023-12-20T08:15:25;99672.66;;;5.91;100.00
4745;BME280;2386;42.138;24.746;2023-12-20T08:17:50;99669.34;;;6.03;100.00
4745;BME280;2386;42.138;24.746;2023-12-20T08:20:18;99663.59;;;6.12;100.00
4745;BME280;2386;42.138;24.746;2023-12-20T08:22:48;99665.22;;;6.07;100.00
4745;BME280;2386;42.138;24.746;2023-12-20T08:25:13;99667.75;;;6.15;100.00
4745;BME280;2386;42.138;24.746;2023-12-20T08:27:40;99647.66;;;6.11;100.00
4745;BME280;2386;42.138;24.746;2023-12-20T08:30:08;99660.34;;;6.30;100.00
4745;BME280;2386;42.138;24.746;2023-12-20T08:32:34;99655.03;;;6.50;100.00
4745;BME280;2386;42.138;24.746;2023-12-20T08:34:59;99654.22;;;6.63;100.00
4745;BME280;2386;42.138;24.746;2023-12-20T08:37:24;99646.97;;;6.70;99.35
4745;BME280;2386;42.138;24.746;2023-12-20T08:39:50;99628.75;;;6.65;99.04
4745;BME280;2386;42.138;24.746;2023-12-20T08:42:16;99641.81;;;6.95;99.26
4745;BME280;2386;42.138;24.746;2023-12-20T08:44:41;99622.72;;;6.89;97.01
4745;BME280;2386;42.138;24.746;2023-12-20T08:47:16;99625.63;;;6.95;96.99
4745;BME280;2386;42.138;24.746;2023-12-20T08:49:42;99626.25;;;7.03;98.19
4745;BME280;2386;42.138;24.746;2023-12-20T08:52:08;99621.06;;;6.82;99.29
4745;BME280;2386;42.138;24.746;2023-12-20T08:54:34;99611.50;;;6.73;99.56
4745;BME280;2386;42.138;24.746;2023-12-20T08:56:59;99598.44;;;6.70;99.76
4745;BME280;2386;42.138;24.746;2023-12-20T08:59:24;99609.47;;;6.68;100.00
4745;BME280;2386;42.138;24.746;2023-12-20T09:02:01;99605.69;;;6.69;100.00
4745;BME280;2386;42.138;24.746;2023-12-20T09:04:27;99593.06;;;6.63;100.00
4745;BME280;2386;42.138;24.746;2023-12-20T09:06:52;99598.25;;;6.78;100.00
4745;BME280;2386;42.138;24.746;2023-12-20T09:09:17;99587.47;;;6.91;100.00
4745;BME280;2386;42.138;24.746;2023-12-20T09:11:43;99585.19;;;7.08;100.00
4745;BME280;2386;42.138;24.746;2023-12-20T09:14:11;99571.66;;;7.28;99.78
4745;BME280;2386;42.138;24.746;2023-12-20T09:16:36;99567.06;;;7.41;99.31
4745;BME280;2386;42.138;24.746;2023-12-20T09:19:05;99556.28;;;7.35;100.00
4745;BME280;2386;42.138;24.746;2023-12-20T09:21:30;99557.53;;;7.39;100.00
4745;BME280;2386;42.138;24.746;2023-12-20T09:23:56;99554.16;;;7.50;100.00
4745;BME280;2386;42.138;24.746;2023-12-20T09:26:21;99542.50;;;7.56;100.00
4745;BME280;2386;42.138;24.746;2023-12-20T09:28:46;99545.38;;;7.68;100.00
4745;BME280;2386;42.138;24.746;2023-12-20T09:31:12;99540.78;;;7.68;100.00
4745;BME280;2386;42.138;24.746;2023-12-20T09:33:38;99541.16;;;7.78;100.00
4745;BME280;2386;42.138;24.746;2023-12-20T09:36:03;99547.81;;;7.82;99.46
4745;BME280;2386;42.138;24.746;2023-12-20T09:38:29;99527.13;;;7.63;100.00
4745;BME280;2386;42.138;24.746;2023-12-20T09:40:54;99528.59;;;7.59;98.16
4745;BME280;2386;42.138;24.746;2023-12-20T09:43:24;99506.72;;;7.74;97.38
4745;BME280;2386;42.138;24.746;2023-12-20T09:45:53;99507.28;;;7.82;98.21
4745;BME280;2386;42.138;24.746;2023-12-20T09:48:19;99500.72;;;7.65;93.65
4745;BME280;2386;42.138;24.746;2023-12-20T09:50:45;99491.34;;;7.74;94.03
4745;BME280;2386;42.138;24.746;2023-12-20T09:53:15;99493.91;;;7.56;94.36
4745;BME280;2386;42.138;24.746;2023-12-20T09:55:41;99493.44;;;7.72;96.95
4745;BME280;2386;42.138;24.746;2023-12-20T09:58:07;99495.06;;;7.80;97.24
4745;BME280;2386;42.138;24.746;2023-12-20T10:00:34;99481.34;;;7.81;94.30
4745;BME280;2386;42.138;24.746;2023-12-20T10:03:00;99470.53;;;7.81;93.21
4745;BME280;2386;42.138;24.746;2023-12-20T10:05:33;99482.66;;;8.04;91.13
4745;BME280;2386;42.138;24.746;2023-12-20T10:07:59;99467.13;;;8.24;89.43
4745;BME280;2386;42.138;24.746;2023-12-20T10:10:26;99462.69;;;8.36;89.06
4745;BME280;2386;42.138;24.746;2023-12-20T10:13:05;99464.19;;;8.25;86.36
4745;BME280;2386;42.138;24.746;2023-12-20T10:15:35;99457.91;;;8.38;90.38
4745;BME280;2386;42.138;24.746;2023-12-20T10:18:01;99451.00;;;8.42;92.46
4745;BME280;2386;42.138;24.746;2023-12-20T10:20:27;99452.38;;;8.51;93.83
4745;BME280;2386;42.138;24.746;2023-12-20T10:22:58;99450.81;;;8.62;93.76
4745;BME280;2386;42.138;24.746;2023-12-20T10:25:23;99433.22;;;8.53;91.43
4745;BME280;2386;42.138;24.746;2023-12-20T10:27:50;99435.00;;;8.66;92.58
4745;BME280;2386;42.138;24.746;2023-12-20T10:30:17;99427.22;;;8.51;87.12
4745;BME280;2386;42.138;24.746;2023-12-20T10:32:42;99418.75;;;8.66;88.46
4745;BME280;2386;42.138;24.746;2023-12-20T10:35:08;99423.56;;;8.64;86.15
4745;BME280;2386;42.138;24.746;2023-12-20T10:37:37;99419.47;;;8.79;86.38
4745;BME280;2386;42.138;24.746;2023-12-20T10:40:04;99422.59;;;8.95;86.21
4745;BME280;2386;42.138;24.746;2023-12-20T10:42:31;99406.09;;;8.84;88.32
4745;BME280;2386;42.138;24.746;2023-12-20T10:44:59;99393.44;;;8.97;83.38
4745;BME280;2386;42.138;24.746;2023-12-20T10:47:25;99387.41;;;9.13;84.90
4745;BME280;2386;42.138;24.746;2023-12-20T10:49:52;99387.25;;;9.26;87.13
4745;BME280;2386;42.138;24.746;2023-12-20T10:52:17;99365.00;;;9.24;89.31
4745;BME280;2386;42.138;24.746;2023-12-20T10:54:44;99383.09;;;9.42;87.52
4745;BME280;2386;42.138;24.746;2023-12-20T10:57:10;99369.94;;;9.45;88.96
4745;BME280;2386;42.138;24.746;2023-12-20T10:59:37;99363.59;;;9.51;88.82
4745;BME280;2386;42.138;24.746;2023-12-20T11:02:04;99367.41;;;9.62;84.94
4745;BME280;2386;42.138;24.746;2023-12-20T11:04:52;99359.75;;;9.71;84.42
4745;BME280;2386;42.138;24.746;2023-12-20T11:07:25;99355.88;;;9.78;85.23
4745;BME280;2386;42.138;24.746;2023-12-20T11:10:00;99348.25;;;9.87;85.79
4745;BME280;2386;42.138;24.746;2023-12-20T11:12:35;99345.44;;;9.94;84.12
4745;BME280;2386;42.138;24.746;2023-12-20T11:15:04;99333.31;;;9.96;77.08
4745;BME280;2386;42.138;24.746;2023-12-20T11:20:24;99333.91;;;10.10;77.31
4745;BME280;2386;42.138;24.746;2023-12-20T11:22:53;99323.09;;;10.22;76.93
4745;BME280;2386;42.138;24.746;2023-12-20T11:25:19;99320.63;;;10.32;75.77
4745;BME280;2386;42.138;24.746;2023-12-20T11:28:09;99320.97;;;10.35;80.04
4745;BME280;2386;42.138;24.746;2023-12-20T11:31:01;99308.50;;;10.34;81.17
4745;BME280;2386;42.138;24.746;2023-12-20T11:35:58;99303.06;;;10.34;83.50
4745;BME280;2386;42.138;24.746;2023-12-20T11:38:25;99306.38;;;10.36;83.81
4745;BME280;2386;42.138;24.746;2023-12-20T11:40:53;99290.34;;;10.35;84.30
4745;BME280;2386;42.138;24.746;2023-12-20T11:46:05;99292.19;;;10.46;80.41
4745;BME280;2386;42.138;24.746;2023-12-20T11:48:32;99278.84;;;10.44;81.28
4745;BME280;2386;42.138;24.746;2023-12-20T11:50:58;99284.16;;;10.51;78.31
4745;BME280;2386;42.138;24.746;2023-12-20T11:53:23;99268.81;;;10.57;79.00
4745;BME280;2386;42.138;24.746;2023-12-20T11:55:49;99271.97;;;10.65;74.54
4745;BME280;2386;42.138;24.746;2023-12-20T11:58:15;99264.19;;;10.69;73.19
4745;BME280;2386;42.138;24.746;2023-12-20T12:00:42;99258.50;;;10.82;72.89
4745;BME280;2386;42.138;24.746;2023-12-20T12:03:08;99255.97;;;10.92;74.25
4745;BME280;2386;42.138;24.746;2023-12-20T12:05:34;99254.53;;;11.01;70.52
4745;BME280;2386;42.138;24.746;2023-12-20T12:08:04;99246.47;;;11.06;75.49
4745;BME280;2386;42.138;24.746;2023-12-20T12:10:30;99244.69;;;11.12;77.46
4745;BME280;2386;42.138;24.746;2023-12-20T12:12:55;99243.34;;;11.14;77.49
4745;BME280;2386;42.138;24.746;2023-12-20T12:15:21;99234.31;;;11.09;76.86
4745;BME280;2386;42.138;24.746;2023-12-20T12:17:56;99238.75;;;11.15;78.85
4745;BME280;2386;42.138;24.746;2023-12-20T12:20:22;99223.78;;;11.12;80.45
4745;BME280;2386;42.138;24.746;2023-12-20T12:23:04;99233.88;;;11.17;79.50
4745;BME280;2386;42.138;24.746;2023-12-20T12:25:31;99228.22;;;11.18;79.18
4745;BME280;2386;42.138;24.746;2023-12-20T12:27:57;99222.78;;;11.18;79.27
4745;BME280;2386;42.138;24.746;2023-12-20T12:30:23;99226.09;;;11.20;80.05
4745;BME280;2386;42.138;24.746;2023-12-20T12:32:50;99226.91;;;11.21;81.26
4745;BME280;2386;42.138;24.746;2023-12-20T12:35:17;99219.59;;;11.22;77.05
4745;BME280;2386;42.138;24.746;2023-12-20T12:37:43;99227.09;;;11.31;78.86
4745;BME280;2386;42.138;24.746;2023-12-20T12:40:13;99221.66;;;11.31;79.40
4745;BME280;2386;42.138;24.746;2023-12-20T12:42:39;99206.69;;;11.29;80.09
4745;BME280;2386;42.138;24.746;2023-12-20T12:45:06;99211.94;;;11.35;81.77
4745;BME280;2386;42.138;24.746;2023-12-20T12:47:32;99214.41;;;11.37;82.06
4745;BME280;2386;42.138;24.746;2023-12-20T12:49:57;99209.81;;;11.37;82.02
4745;BME280;2386;42.138;24.746;2023-12-20T12:52:23;99199.44;;;11.34;82.66
4745;BME280;2386;42.138;24.746;2023-12-20T12:54:48;99196.56;;;11.41;82.29
4745;BME280;2386;42.138;24.746;2023-12-20T12:57:15;99199.84;;;11.43;81.70
4745;BME280;2386;42.138;24.746;2023-12-20T12:59:43;99198.47;;;11.40;82.77
4745;BME280;2386;42.138;24.746;2023-12-20T13:02:11;99191.88;;;11.36;81.62
4745;BME280;2386;42.138;24.746;2023-12-20T13:04:36;99197.06;;;11.38;80.78
4745;BME280;2386;42.138;24.746;2023-12-20T13:07:01;99190.06;;;11.42;81.00
4745;BME280;2386;42.138;24.746;2023-12-20T13:09:27;99201.91;;;11.36;82.41
4745;BME280;2386;42.138;24.746;2023-12-20T13:11:53;99188.25;;;11.31;81.08
4745;BME280;2386;42.138;24.746;2023-12-20T13:14:18;99188.81;;;11.33;79.76
4745;BME280;2386;42.138;24.746;2023-12-20T13:16:44;99188.75;;;11.28;80.88